sensor_id;sensor_type;location;lat;lon;timestamp;temperature;humidity
69335;SHT31;56477;52.742;15.242;2022-09-29T00:01:33;7.23;99.12
69335;SHT31;56477;52.742;15.242;2022-09-29T00:03:59;7.19;99.05
69335;SHT31;56477;52.742;15.242;2022-09-29T00:06:25;7.13;99.09
69335;SHT31;56477;52.742;15.242;2022-09-29T00:08:51;7.12;99.12
69335;SHT31;56477;52.742;15.242;2022-09-29T00:11:18;7.12;99.09
69335;SHT31;56477;52.742;15.242;2022-09-29T00:13:45;7.10;99.12
69335;SHT31;56477;52.742;15.242;2022-09-29T00:16:12;7.05;99.29
69335;SHT31;56477;52.742;15.242;2022-09-29T00:18:39;7.07;99.40
69335;SHT31;56477;52.742;15.242;2022-09-29T00:21:10;7.06;99.42
69335;SHT31;56477;52.742;15.242;2022-09-29T00:23:37;7.02;99.53
69335;SHT31;56477;52.742;15.242;2022-09-29T00:26:06;7.02;99.66
69335;SHT31;56477;52.742;15.242;2022-09-29T00:28:34;7.05;99.69
69335;SHT31;56477;52.742;15.242;2022-09-29T00:31:02;7.09;99.58
69335;SHT31;56477;52.742;15.242;2022-09-29T00:33:33;7.06;99.51
69335;SHT31;56477;52.742;15.242;2022-09-29T00:36:01;7.03;99.62
69335;SHT31;56477;52.742;15.242;2022-09-29T00:38:28;7.03;99.73
69335;SHT31;56477;52.742;15.242;2022-09-29T00:40:55;7.00;99.89
69335;SHT31;56477;52.742;15.242;2022-09-29T00:44:04;7.00;99.83
69335;SHT31;56477;52.742;15.242;2022-09-29T00:46:46;7.00;99.93
69335;SHT31;56477;52.742;15.242;2022-09-29T00:52:02;7.02;99.99
69335;SHT31;56477;52.742;15.242;2022-09-29T00:54:33;7.05;99.99
69335;SHT31;56477;52.742;15.242;2022-09-29T00:57:02;7.06;99.99
69335;SHT31;56477;52.742;15.242;2022-09-29T00:59:41;7.05;99.99
69335;SHT31;56477;52.742;15.242;2022-09-29T01:02:14;7.02;99.99
69335;SHT31;56477;52.742;15.242;2022-09-29T01:04:42;7.02;99.99
69335;SHT31;56477;52.742;15.242;2022-09-29T01:07:08;7.06;99.99
69335;SHT31;56477;52.742;15.242;2022-09-29T01:09:37;7.09;99.99
69335;SHT31;56477;52.742;15.242;2022-09-29T01:12:04;7.07;99.99
69335;SHT31;56477;52.742;15.242;2022-09-29T01:14:32;7.05;99.99
69335;SHT31;56477;52.742;15.242;2022-09-29T01:17:00;7.07;99.99
69335;SHT31;56477;52.742;15.242;2022-09-29T01:20:20;7.06;99.99
69335;SHT31;56477;52.742;15.242;2022-09-29T01:22:31;7.10;99.99
69335;SHT31;56477;52.742;15.242;2022-09-29T01:39:39;7.17;99.99
69335;SHT31;56477;52.742;15.242;2022-09-29T01:42:17;7.13;99.99
69335;SHT31;56477;52.742;15.242;2022-09-29T01:45:07;7.14;99.99
69335;SHT31;56477;52.742;15.242;2022-09-29T01:47:43;7.17;99.99
69335;SHT31;56477;52.742;15.242;2022-09-29T01:50:23;7.20;99.99
69335;SHT31;56477;52.742;15.242;2022-09-29T01:52:56;7.20;99.99
69335;SHT31;56477;52.742;15.242;2022-09-29T01:55:28;7.14;99.99
69335;SHT31;56477;52.742;15.242;2022-09-29T01:58:04;7.14;99.99
69335;SHT31;56477;52.742;15.242;2022-09-29T02:00:38;7.12;99.99
69335;SHT31;56477;52.742;15.242;2022-09-29T02:05:47;7.12;99.99
69335;SHT31;56477;52.742;15.242;2022-09-29T02:08:59;7.12;99.99
69335;SHT31;56477;52.742;15.242;2022-09-29T02:11:19;7.16;99.99
69335;SHT31;56477;52.742;15.242;2022-09-29T02:16:33;7.19;99.99
69335;SHT31;56477;52.742;15.242;2022-09-29T02:19:07;7.19;99.99
69335;SHT31;56477;52.742;15.242;2022-09-29T02:21:35;7.20;99.99
69335;SHT31;56477;52.742;15.242;2022-09-29T02:24:02;7.19;99.99
69335;SHT31;56477;52.742;15.242;2022-09-29T02:26:31;7.23;99.99
69335;SHT31;56477;52.742;15.242;2022-09-29T02:29:03;7.23;99.99
69335;SHT31;56477;52.742;15.242;2022-09-29T02:31:31;7.23;99.99
69335;SHT31;56477;52.742;15.242;2022-09-29T02:33:58;7.24;99.99
69335;SHT31;56477;52.742;15.242;2022-09-29T02:45:26;7.07;99.99
69335;SHT31;56477;52.742;15.242;2022-09-29T02:53:58;6.89;99.99
69335;SHT31;56477;52.742;15.242;2022-09-29T02:59:07;6.88;99.99
69335;SHT31;56477;52.742;15.242;2022-09-29T03:01:46;6.89;99.99
69335;SHT31;56477;52.742;15.242;2022-09-29T03:04:12;6.93;99.99
69335;SHT31;56477;52.742;15.242;2022-09-29T03:06:38;6.91;99.99
69335;SHT31;56477;52.742;15.242;2022-09-29T03:09:04;6.89;99.99
69335;SHT31;56477;52.742;15.242;2022-09-29T03:11:30;6.96;99.99
69335;SHT31;56477;52.742;15.242;2022-09-29T03:13:56;6.85;99.99
69335;SHT31;56477;52.742;15.242;2022-09-29T03:16:22;6.75;99.99
69335;SHT31;56477;52.742;15.242;2022-09-29T03:18:48;6.81;99.99
69335;SHT31;56477;52.742;15.242;2022-09-29T03:21:14;6.75;99.99
69335;SHT31;56477;52.742;15.242;2022-09-29T03:23:40;6.69;99.99
69335;SHT31;56477;52.742;15.242;2022-09-29T03:26:06;6.61;99.99
69335;SHT31;56477;52.742;15.242;2022-09-29T03:28:32;6.64;99.99
69335;SHT31;56477;52.742;15.242;2022-09-29T03:31:06;6.67;99.99
69335;SHT31;56477;52.742;15.242;2022-09-29T03:33:35;6.64;99.99
69335;SHT31;56477;52.742;15.242;2022-09-29T03:36:03;6.57;99.99
69335;SHT31;56477;52.742;15.242;2022-09-29T03:38:31;6.59;99.99
69335;SHT31;56477;52.742;15.242;2022-09-29T03:40:57;6.61;99.99
69335;SHT31;56477;52.742;15.242;2022-09-29T03:43:23;6.67;99.99
69335;SHT31;56477;52.742;15.242;2022-09-29T03:45:51;6.68;99.99
69335;SHT31;56477;52.742;15.242;2022-09-29T03:48:18;6.72;99.99
69335;SHT31;56477;52.742;15.242;2022-09-29T03:50:45;6.76;99.99
69335;SHT31;56477;52.742;15.242;2022-09-29T03:53:12;6.76;99.99
69335;SHT31;56477;52.742;15.242;2022-09-29T03:55:38;6.78;99.99
69335;SHT31;56477;52.742;15.242;2022-09-29T03:58:04;6.79;99.99
69335;SHT31;56477;52.742;15.242;2022-09-29T04:00:30;6.85;99.99
69335;SHT31;56477;52.742;15.242;2022-09-29T04:02:57;6.84;99.99
69335;SHT31;56477;52.742;15.242;2022-09-29T04:05:23;6.85;99.99
69335;SHT31;56477;52.742;15.242;2022-09-29T04:07:49;6.89;99.99
69335;SHT31;56477;52.742;15.242;2022-09-29T04:10:15;6.96;99.99
69335;SHT31;56477;52.742;15.242;2022-09-29T04:12:41;7.00;99.99
69335;SHT31;56477;52.742;15.242;2022-09-29T04:15:07;6.95;99.99
69335;SHT31;56477;52.742;15.242;2022-09-29T04:17:33;6.96;99.99
69335;SHT31;56477;52.742;15.242;2022-09-29T04:20:00;6.96;99.94
69335;SHT31;56477;52.742;15.242;2022-09-29T04:22:25;6.96;99.90
69335;SHT31;56477;52.742;15.242;2022-09-29T04:24:52;6.99;99.92
69335;SHT31;56477;52.742;15.242;2022-09-29T04:27:18;7.00;99.85
69335;SHT31;56477;52.742;15.242;2022-09-29T04:29:44;7.00;99.78
69335;SHT31;56477;52.742;15.242;2022-09-29T04:32:10;6.93;99.56
69335;SHT31;56477;52.742;15.242;2022-09-29T04:34:36;6.86;99.47
69335;SHT31;56477;52.742;15.242;2022-09-29T04:37:02;6.86;99.57
69335;SHT31;56477;52.742;15.242;2022-09-29T04:39:28;6.84;99.64
69335;SHT31;56477;52.742;15.242;2022-09-29T04:41:54;6.84;99.62
69335;SHT31;56477;52.742;15.242;2022-09-29T04:44:20;6.81;99.71
69335;SHT31;56477;52.742;15.242;2022-09-29T04:46:50;6.81;99.71
69335;SHT31;56477;52.742;15.242;2022-09-29T04:49:17;6.58;99.53
69335;SHT31;56477;52.742;15.242;2022-09-29T04:51:44;6.61;99.65
69335;SHT31;56477;52.742;15.242;2022-09-29T04:54:10;6.52;99.61
69335;SHT31;56477;52.742;15.242;2022-09-29T04:56:36;6.55;99.72
69335;SHT31;56477;52.742;15.242;2022-09-29T04:59:02;6.47;99.68
69335;SHT31;56477;52.742;15.242;2022-09-29T05:01:29;6.48;99.70
69335;SHT31;56477;52.742;15.242;2022-09-29T05:03:55;6.41;99.44
69335;SHT31;56477;52.742;15.242;2022-09-29T05:06:21;6.38;99.44
69335;SHT31;56477;52.742;15.242;2022-09-29T05:08:47;6.35;99.53
69335;SHT31;56477;52.742;15.242;2022-09-29T05:11:13;6.38;99.73
69335;SHT31;56477;52.742;15.242;2022-09-29T05:13:39;6.35;99.64
69335;SHT31;56477;52.742;15.242;2022-09-29T05:16:06;6.38;99.85
69335;SHT31;56477;52.742;15.242;2022-09-29T05:18:32;6.27;99.77
69335;SHT31;56477;52.742;15.242;2022-09-29T05:21:03;6.26;99.78
69335;SHT31;56477;52.742;15.242;2022-09-29T05:23:29;6.28;99.79
69335;SHT31;56477;52.742;15.242;2022-09-29T05:26:00;6.23;99.90
69335;SHT31;56477;52.742;15.242;2022-09-29T05:28:26;6.14;99.60
69335;SHT31;56477;52.742;15.242;2022-09-29T05:30:52;6.02;99.41
69335;SHT31;56477;52.742;15.242;2022-09-29T05:33:18;6.02;99.55
69335;SHT31;56477;52.742;15.242;2022-09-29T05:35:44;5.97;99.57
69335;SHT31;56477;52.742;15.242;2022-09-29T05:38:10;5.90;99.56
69335;SHT31;56477;52.742;15.242;2022-09-29T05:40:36;5.90;99.65
69335;SHT31;56477;52.742;15.242;2022-09-29T05:43:02;5.85;99.77
69335;SHT31;56477;52.742;15.242;2022-09-29T05:45:28;5.78;99.54
69335;SHT31;56477;52.742;15.242;2022-09-29T05:47:54;5.69;99.54
69335;SHT31;56477;52.742;15.242;2022-09-29T05:50:20;5.72;99.77
69335;SHT31;56477;52.742;15.242;2022-09-29T05:52:47;5.73;99.81
69335;SHT31;56477;52.742;15.242;2022-09-29T05:55:14;5.76;99.87
69335;SHT31;56477;52.742;15.242;2022-09-29T05:57:40;5.78;99.84
69335;SHT31;56477;52.742;15.242;2022-09-29T06:00:06;5.76;99.70
69335;SHT31;56477;52.742;15.242;2022-09-29T06:02:33;5.72;99.73
69335;SHT31;56477;52.742;15.242;2022-09-29T06:04:59;5.76;99.79
69335;SHT31;56477;52.742;15.242;2022-09-29T06:07:25;5.75;99.88
69335;SHT31;56477;52.742;15.242;2022-09-29T06:09:51;5.80;99.91
69335;SHT31;56477;52.742;15.242;2022-09-29T06:12:17;5.83;99.85
69335;SHT31;56477;52.742;15.242;2022-09-29T06:14:43;5.85;99.75
69335;SHT31;56477;52.742;15.242;2022-09-29T06:17:09;5.86;99.76
69335;SHT31;56477;52.742;15.242;2022-09-29T06:19:35;5.89;99.97
69335;SHT31;56477;52.742;15.242;2022-09-29T06:22:01;5.92;99.99
69335;SHT31;56477;52.742;15.242;2022-09-29T06:24:27;6.00;99.99
69335;SHT31;56477;52.742;15.242;2022-09-29T06:26:53;6.09;99.99
69335;SHT31;56477;52.742;15.242;2022-09-29T06:29:19;6.14;99.92
69335;SHT31;56477;52.742;15.242;2022-09-29T06:31:45;6.18;99.92
69335;SHT31;56477;52.742;15.242;2022-09-29T06:34:11;6.20;99.99
69335;SHT31;56477;52.742;15.242;2022-09-29T06:36:43;6.27;99.96
69335;SHT31;56477;52.742;15.242;2022-09-29T06:39:27;6.31;99.77
69335;SHT31;56477;52.742;15.242;2022-09-29T06:41:54;6.30;99.65
69335;SHT31;56477;52.742;15.242;2022-09-29T06:44:22;6.31;99.58
69335;SHT31;56477;52.742;15.242;2022-09-29T06:46:49;6.31;99.60
69335;SHT31;56477;52.742;15.242;2022-09-29T06:49:16;6.40;99.66
69335;SHT31;56477;52.742;15.242;2022-09-29T06:51:43;6.47;99.71
69335;SHT31;56477;52.742;15.242;2022-09-29T06:54:10;6.54;99.71
69335;SHT31;56477;52.742;15.242;2022-09-29T06:56:38;6.65;99.83
69335;SHT31;56477;52.742;15.242;2022-09-29T06:59:04;6.71;99.62
69335;SHT31;56477;52.742;15.242;2022-09-29T07:01:30;6.79;99.41
69335;SHT31;56477;52.742;15.242;2022-09-29T07:03:56;6.81;99.17
69335;SHT31;56477;52.742;15.242;2022-09-29T07:06:25;6.95;99.29
69335;SHT31;56477;52.742;15.242;2022-09-29T07:08:55;6.93;98.80
69335;SHT31;56477;52.742;15.242;2022-09-29T07:11:22;7.02;98.94
69335;SHT31;56477;52.742;15.242;2022-09-29T07:13:49;7.10;98.97
69335;SHT31;56477;52.742;15.242;2022-09-29T07:16:16;7.03;98.26
69335;SHT31;56477;52.742;15.242;2022-09-29T07:18:43;6.97;98.60
69335;SHT31;56477;52.742;15.242;2022-09-29T07:21:13;7.13;98.68
69335;SHT31;56477;52.742;15.242;2022-09-29T07:23:45;7.23;98.47
69335;SHT31;56477;52.742;15.242;2022-09-29T07:26:12;7.23;97.84
69335;SHT31;56477;52.742;15.242;2022-09-29T07:28:38;7.31;97.89
69335;SHT31;56477;52.742;15.242;2022-09-29T07:31:07;7.42;97.74
69335;SHT31;56477;52.742;15.242;2022-09-29T07:33:33;7.46;97.52
69335;SHT31;56477;52.742;15.242;2022-09-29T07:36:00;7.48;97.31
69335;SHT31;56477;52.742;15.242;2022-09-29T07:38:27;7.53;97.17
69335;SHT31;56477;52.742;15.242;2022-09-29T07:40:54;7.58;96.79
69335;SHT31;56477;52.742;15.242;2022-09-29T07:43:20;7.64;96.84
69335;SHT31;56477;52.742;15.242;2022-09-29T07:45:50;7.71;96.93
69335;SHT31;56477;52.742;15.242;2022-09-29T07:48:16;7.60;96.67
69335;SHT31;56477;52.742;15.242;2022-09-29T07:50:43;7.61;96.54
69335;SHT31;56477;52.742;15.242;2022-09-29T07:53:10;7.68;96.69
69335;SHT31;56477;52.742;15.242;2022-09-29T07:55:37;7.78;96.61
69335;SHT31;56477;52.742;15.242;2022-09-29T07:58:04;7.84;96.36
69335;SHT31;56477;52.742;15.242;2022-09-29T08:00:30;7.81;95.97
69335;SHT31;56477;52.742;15.242;2022-09-29T08:03:05;7.82;95.69
69335;SHT31;56477;52.742;15.242;2022-09-29T08:05:34;7.91;96.09
69335;SHT31;56477;52.742;15.242;2022-09-29T08:08:02;8.03;95.99
69335;SHT31;56477;52.742;15.242;2022-09-29T08:10:30;8.29;95.49
69335;SHT31;56477;52.742;15.242;2022-09-29T08:12:56;8.64;94.99
69335;SHT31;56477;52.742;15.242;2022-09-29T08:15:22;8.97;93.18
69335;SHT31;56477;52.742;15.242;2022-09-29T08:17:51;9.04;92.27
69335;SHT31;56477;52.742;15.242;2022-09-29T08:20:18;8.92;93.39
69335;SHT31;56477;52.742;15.242;2022-09-29T08:22:45;8.97;92.93
69335;SHT31;56477;52.742;15.242;2022-09-29T08:25:11;9.12;93.00
69335;SHT31;56477;52.742;15.242;2022-09-29T08:27:37;9.04;92.29
69335;SHT31;56477;52.742;15.242;2022-09-29T08:30:03;8.94;92.81
69335;SHT31;56477;52.742;15.242;2022-09-29T08:32:30;9.09;92.58
69335;SHT31;56477;52.742;15.242;2022-09-29T08:34:56;9.23;92.60
69335;SHT31;56477;52.742;15.242;2022-09-29T08:37:22;8.85;93.19
69335;SHT31;56477;52.742;15.242;2022-09-29T08:39:48;9.07;93.96
69335;SHT31;56477;52.742;15.242;2022-09-29T08:42:34;8.98;93.65
69335;SHT31;56477;52.742;15.242;2022-09-29T08:45:07;9.09;92.92
69335;SHT31;56477;52.742;15.242;2022-09-29T08:48:08;9.29;93.31
69335;SHT31;56477;52.742;15.242;2022-09-29T08:50:43;9.29;92.66
69335;SHT31;56477;52.742;15.242;2022-09-29T08:53:13;9.22;93.26
69335;SHT31;56477;52.742;15.242;2022-09-29T08:55:45;8.87;93.50
69335;SHT31;56477;52.742;15.242;2022-09-29T08:58:14;9.08;93.49
69335;SHT31;56477;52.742;15.242;2022-09-29T09:03:56;9.76;91.31
69335;SHT31;56477;52.742;15.242;2022-09-29T09:06:30;9.90;90.32
69335;SHT31;56477;52.742;15.242;2022-09-29T09:15:03;9.67;90.69
69335;SHT31;56477;52.742;15.242;2022-09-29T09:17:56;9.95;90.04
69335;SHT31;56477;52.742;15.242;2022-09-29T09:20:35;10.15;89.88
69335;SHT31;56477;52.742;15.242;2022-09-29T09:23:18;9.70;91.05
69335;SHT31;56477;52.742;15.242;2022-09-29T09:25:54;9.90;90.32
69335;SHT31;56477;52.742;15.242;2022-09-29T09:36:34;10.49;88.50
69335;SHT31;56477;52.742;15.242;2022-09-29T09:39:09;10.83;86.94
69335;SHT31;56477;52.742;15.242;2022-09-29T09:41:37;11.13;86.38
69335;SHT31;56477;52.742;15.242;2022-09-29T09:44:17;11.42;85.93
69335;SHT31;56477;52.742;15.242;2022-09-29T09:49:25;11.34;83.92
69335;SHT31;56477;52.742;15.242;2022-09-29T09:54:45;11.38;84.80
69335;SHT31;56477;52.742;15.242;2022-09-29T10:02:25;13.97;74.07
69335;SHT31;56477;52.742;15.242;2022-09-29T10:04:51;14.38;73.24
69335;SHT31;56477;52.742;15.242;2022-09-29T10:07:19;13.42;74.19
69335;SHT31;56477;52.742;15.242;2022-09-29T10:09:46;12.52;77.13
69335;SHT31;56477;52.742;15.242;2022-09-29T10:12:21;12.06;78.84
69335;SHT31;56477;52.742;15.242;2022-09-29T10:15:00;11.87;80.31
69335;SHT31;56477;52.742;15.242;2022-09-29T10:17:36;12.67;78.54
69335;SHT31;56477;52.742;15.242;2022-09-29T10:20:04;13.18;75.96
69335;SHT31;56477;52.742;15.242;2022-09-29T10:22:32;14.14;74.13
69335;SHT31;56477;52.742;15.242;2022-09-29T10:25:17;14.07;74.14
69335;SHT31;56477;52.742;15.242;2022-09-29T10:27:53;13.60;75.57
69335;SHT31;56477;52.742;15.242;2022-09-29T10:30:30;13.13;77.24
69335;SHT31;56477;52.742;15.242;2022-09-29T10:33:01;13.49;76.85
69335;SHT31;56477;52.742;15.242;2022-09-29T10:35:31;14.40;73.72
69335;SHT31;56477;52.742;15.242;2022-09-29T10:38:05;15.41;68.82
69335;SHT31;56477;52.742;15.242;2022-09-29T10:40:33;15.66;65.87
69335;SHT31;56477;52.742;15.242;2022-09-29T10:43:24;15.05;68.45
69335;SHT31;56477;52.742;15.242;2022-09-29T10:45:50;14.55;72.55
69335;SHT31;56477;52.742;15.242;2022-09-29T10:48:18;13.78;73.53
69335;SHT31;56477;52.742;15.242;2022-09-29T10:51:01;13.42;76.22
69335;SHT31;56477;52.742;15.242;2022-09-29T10:55:57;13.23;74.61
69335;SHT31;56477;52.742;15.242;2022-09-29T10:58:32;12.80;76.89
69335;SHT31;56477;52.742;15.242;2022-09-29T11:01:14;12.95;74.28
69335;SHT31;56477;52.742;15.242;2022-09-29T11:03:53;13.49;75.37
69335;SHT31;56477;52.742;15.242;2022-09-29T11:06:34;14.59;70.33
69335;SHT31;56477;52.742;15.242;2022-09-29T11:09:04;14.90;68.44
69335;SHT31;56477;52.742;15.242;2022-09-29T11:11:36;14.66;69.17
69335;SHT31;56477;52.742;15.242;2022-09-29T11:14:04;14.62;69.30
69335;SHT31;56477;52.742;15.242;2022-09-29T11:16:36;14.36;69.46
69335;SHT31;56477;52.742;15.242;2022-09-29T11:19:07;14.76;68.34
69335;SHT31;56477;52.742;15.242;2022-09-29T11:21:49;14.08;71.36
69335;SHT31;56477;52.742;15.242;2022-09-29T11:24:29;14.21;71.05
69335;SHT31;56477;52.742;15.242;2022-09-29T11:27:20;13.97;72.30
69335;SHT31;56477;52.742;15.242;2022-09-29T11:40:59;13.22;75.05
69335;SHT31;56477;52.742;15.242;2022-09-29T11:44:28;13.60;74.15
69335;SHT31;56477;52.742;15.242;2022-09-29T11:46:52;13.46;72.26
69335;SHT31;56477;52.742;15.242;2022-09-29T12:01:05;13.20;73.66
69335;SHT31;56477;52.742;15.242;2022-09-29T12:04:30;13.03;72.39
69335;SHT31;56477;52.742;15.242;2022-09-29T12:12:09;12.81;73.58
69335;SHT31;56477;52.742;15.242;2022-09-29T12:15:06;12.87;73.19
69335;SHT31;56477;52.742;15.242;2022-09-29T12:17:40;12.85;74.66
69335;SHT31;56477;52.742;15.242;2022-09-29T12:20:17;13.05;74.62
69335;SHT31;56477;52.742;15.242;2022-09-29T12:22:46;13.42;75.07
69335;SHT31;56477;52.742;15.242;2022-09-29T12:25:16;13.75;72.81
69335;SHT31;56477;52.742;15.242;2022-09-29T12:27:44;13.78;71.94
69335;SHT31;56477;52.742;15.242;2022-09-29T12:32:52;13.44;71.57
69335;SHT31;56477;52.742;15.242;2022-09-29T12:38:24;12.87;73.73
69335;SHT31;56477;52.742;15.242;2022-09-29T12:41:15;12.85;74.28
69335;SHT31;56477;52.742;15.242;2022-09-29T12:49:28;12.96;76.34
69335;SHT31;56477;52.742;15.242;2022-09-29T12:51:59;12.85;75.35
69335;SHT31;56477;52.742;15.242;2022-09-29T12:54:48;13.05;76.43
69335;SHT31;56477;52.742;15.242;2022-09-29T12:57:23;13.15;75.28
69335;SHT31;56477;52.742;15.242;2022-09-29T13:16:12;13.26;73.43
69335;SHT31;56477;52.742;15.242;2022-09-29T13:29:52;13.30;74.53
69335;SHT31;56477;52.742;15.242;2022-09-29T13:32:20;13.36;74.69
69335;SHT31;56477;52.742;15.242;2022-09-29T13:34:54;13.35;75.78
69335;SHT31;56477;52.742;15.242;2022-09-29T13:37:24;13.35;75.90
69335;SHT31;56477;52.742;15.242;2022-09-29T13:39:57;13.26;75.92
69335;SHT31;56477;52.742;15.242;2022-09-29T13:42:44;13.26;75.25
69335;SHT31;56477;52.742;15.242;2022-09-29T13:47:57;13.29;75.13
69335;SHT31;56477;52.742;15.242;2022-09-29T13:50:43;13.15;75.60
69335;SHT31;56477;52.742;15.242;2022-09-29T13:53:34;13.09;75.91
69335;SHT31;56477;52.742;15.242;2022-09-29T13:58:34;13.19;76.54
69335;SHT31;56477;52.742;15.242;2022-09-29T14:01:02;13.23;75.76
69335;SHT31;56477;52.742;15.242;2022-09-29T14:03:40;13.26;75.94
69335;SHT31;56477;52.742;15.242;2022-09-29T14:06:21;13.30;74.59
69335;SHT31;56477;52.742;15.242;2022-09-29T14:08:49;13.09;74.97
69335;SHT31;56477;52.742;15.242;2022-09-29T14:11:25;13.09;74.67
69335;SHT31;56477;52.742;15.242;2022-09-29T14:27:46;12.98;75.95
69335;SHT31;56477;52.742;15.242;2022-09-29T14:35:35;13.06;74.87
69335;SHT31;56477;52.742;15.242;2022-09-29T14:38:21;13.10;75.18
69335;SHT31;56477;52.742;15.242;2022-09-29T14:52:20;12.81;77.81
69335;SHT31;56477;52.742;15.242;2022-09-29T15:02:45;12.74;78.92
69335;SHT31;56477;52.742;15.242;2022-09-29T15:05:22;12.67;78.72
69335;SHT31;56477;52.742;15.242;2022-09-29T15:07:48;12.64;78.70
69335;SHT31;56477;52.742;15.242;2022-09-29T15:10:38;12.64;77.94
69335;SHT31;56477;52.742;15.242;2022-09-29T15:13:24;12.65;78.64
69335;SHT31;56477;52.742;15.242;2022-09-29T15:16:02;12.64;79.43
69335;SHT31;56477;52.742;15.242;2022-09-29T15:21:18;12.61;79.54
69335;SHT31;56477;52.742;15.242;2022-09-29T15:26:32;12.61;79.80
69335;SHT31;56477;52.742;15.242;2022-09-29T15:29:04;12.60;81.65
69335;SHT31;56477;52.742;15.242;2022-09-29T15:31:32;12.61;79.85
69335;SHT31;56477;52.742;15.242;2022-09-29T15:33:59;12.50;79.60
69335;SHT31;56477;52.742;15.242;2022-09-29T15:36:31;12.51;79.37
69335;SHT31;56477;52.742;15.242;2022-09-29T15:39:09;12.54;79.72
69335;SHT31;56477;52.742;15.242;2022-09-29T15:41:43;12.43;80.58
69335;SHT31;56477;52.742;15.242;2022-09-29T15:44:11;12.37;80.46
69335;SHT31;56477;52.742;15.242;2022-09-29T15:46:39;12.33;78.74
69335;SHT31;56477;52.742;15.242;2022-09-29T15:49:13;12.30;80.51
69335;SHT31;56477;52.742;15.242;2022-09-29T15:51:43;12.29;77.20
69335;SHT31;56477;52.742;15.242;2022-09-29T15:54:12;12.27;76.62
69335;SHT31;56477;52.742;15.242;2022-09-29T15:56:39;12.24;76.24
69335;SHT31;56477;52.742;15.242;2022-09-29T15:59:47;12.23;80.13
69335;SHT31;56477;52.742;15.242;2022-09-29T16:02:39;12.20;75.67
69335;SHT31;56477;52.742;15.242;2022-09-29T16:05:12;12.12;76.02
69335;SHT31;56477;52.742;15.242;2022-09-29T16:08:01;12.10;79.15
69335;SHT31;56477;52.742;15.242;2022-09-29T16:10:31;12.09;79.83
69335;SHT31;56477;52.742;15.242;2022-09-29T16:13:03;12.07;80.43
69335;SHT31;56477;52.742;15.242;2022-09-29T16:15:43;12.03;81.03
69335;SHT31;56477;52.742;15.242;2022-09-29T16:18:28;11.89;81.14
69335;SHT31;56477;52.742;15.242;2022-09-29T16:20:57;11.83;81.47
69335;SHT31;56477;52.742;15.242;2022-09-29T16:28:34;11.59;81.26
69335;SHT31;56477;52.742;15.242;2022-09-29T16:31:30;11.48;81.04
69335;SHT31;56477;52.742;15.242;2022-09-29T16:33:58;11.42;80.96
69335;SHT31;56477;52.742;15.242;2022-09-29T16:36:32;11.32;81.12
69335;SHT31;56477;52.742;15.242;2022-09-29T16:39:05;11.27;81.42
69335;SHT31;56477;52.742;15.242;2022-09-29T16:41:36;11.20;81.97
69335;SHT31;56477;52.742;15.242;2022-09-29T16:49:51;11.16;82.26
69335;SHT31;56477;52.742;15.242;2022-09-29T16:52:29;11.10;82.85
69335;SHT31;56477;52.742;15.242;2022-09-29T16:57:32;11.11;82.24
69335;SHT31;56477;52.742;15.242;2022-09-29T17:00:05;11.16;81.85
69335;SHT31;56477;52.742;15.242;2022-09-29T17:02:32;11.13;82.35
69335;SHT31;56477;52.742;15.242;2022-09-29T17:04:58;11.10;83.03
69335;SHT31;56477;52.742;15.242;2022-09-29T17:07:27;11.08;83.17
69335;SHT31;56477;52.742;15.242;2022-09-29T17:09:56;11.10;82.46
69335;SHT31;56477;52.742;15.242;2022-09-29T17:12:24;11.08;83.32
69335;SHT31;56477;52.742;15.242;2022-09-29T17:14:51;11.13;83.62
69335;SHT31;56477;52.742;15.242;2022-09-29T17:17:21;11.10;83.94
69335;SHT31;56477;52.742;15.242;2022-09-29T17:19:48;11.11;83.70
69335;SHT31;56477;52.742;15.242;2022-09-29T17:22:33;11.07;83.88
69335;SHT31;56477;52.742;15.242;2022-09-29T17:25:02;11.03;84.72
69335;SHT31;56477;52.742;15.242;2022-09-29T17:27:29;11.00;84.48
69335;SHT31;56477;52.742;15.242;2022-09-29T17:30:19;11.03;84.53
69335;SHT31;56477;52.742;15.242;2022-09-29T17:32:52;11.04;85.04
69335;SHT31;56477;52.742;15.242;2022-09-29T17:35:21;11.04;85.40
69335;SHT31;56477;52.742;15.242;2022-09-29T17:37:48;11.00;85.36
69335;SHT31;56477;52.742;15.242;2022-09-29T17:40:28;10.99;85.15
69335;SHT31;56477;52.742;15.242;2022-09-29T17:42:56;10.96;85.48
69335;SHT31;56477;52.742;15.242;2022-09-29T17:45:26;10.95;85.83
69335;SHT31;56477;52.742;15.242;2022-09-29T17:47:53;10.96;86.12
69335;SHT31;56477;52.742;15.242;2022-09-29T17:50:38;10.97;85.57
69335;SHT31;56477;52.742;15.242;2022-09-29T17:53:06;10.96;85.49
69335;SHT31;56477;52.742;15.242;2022-09-29T17:55:33;10.95;85.81
69335;SHT31;56477;52.742;15.242;2022-09-29T17:57:59;10.93;86.47
69335;SHT31;56477;52.742;15.242;2022-09-29T18:00:29;10.96;86.16
69335;SHT31;56477;52.742;15.242;2022-09-29T18:02:56;10.96;86.83
69335;SHT31;56477;52.742;15.242;2022-09-29T18:05:27;10.95;87.02
69335;SHT31;56477;52.742;15.242;2022-09-29T18:07:55;10.97;86.32
69335;SHT31;56477;52.742;15.242;2022-09-29T18:12:51;10.92;86.18
69335;SHT31;56477;52.742;15.242;2022-09-29T18:15:17;10.87;86.80
69335;SHT31;56477;52.742;15.242;2022-09-29T18:17:44;10.83;86.69
69335;SHT31;56477;52.742;15.242;2022-09-29T18:20:15;10.81;87.17
69335;SHT31;56477;52.742;15.242;2022-09-29T18:22:42;10.73;87.46
69335;SHT31;56477;52.742;15.242;2022-09-29T18:25:14;10.69;87.84
69335;SHT31;56477;52.742;15.242;2022-09-29T18:27:46;10.66;88.27
69335;SHT31;56477;52.742;15.242;2022-09-29T18:30:40;10.60;88.34
69335;SHT31;56477;52.742;15.242;2022-09-29T18:33:13;10.55;88.78
69335;SHT31;56477;52.742;15.242;2022-09-29T18:35:41;10.46;89.03
69335;SHT31;56477;52.742;15.242;2022-09-29T18:38:08;10.35;89.68
69335;SHT31;56477;52.742;15.242;2022-09-29T18:40:35;10.27;89.87
69335;SHT31;56477;52.742;15.242;2022-09-29T18:43:03;10.08;90.72
69335;SHT31;56477;52.742;15.242;2022-09-29T18:45:34;9.94;91.31
69335;SHT31;56477;52.742;15.242;2022-09-29T18:48:04;9.84;91.13
69335;SHT31;56477;52.742;15.242;2022-09-29T18:50:34;9.79;91.17
69335;SHT31;56477;52.742;15.242;2022-09-29T18:53:01;9.70;91.47
69335;SHT31;56477;52.742;15.242;2022-09-29T18:55:28;9.73;91.64
69335;SHT31;56477;52.742;15.242;2022-09-29T18:57:56;9.73;91.68
69335;SHT31;56477;52.742;15.242;2022-09-29T19:00:31;9.76;91.31
69335;SHT31;56477;52.742;15.242;2022-09-29T19:02:58;9.81;90.88
69335;SHT31;56477;52.742;15.242;2022-09-29T19:05:27;9.80;90.93
69335;SHT31;56477;52.742;15.242;2022-09-29T19:07:58;9.79;91.08
69335;SHT31;56477;52.742;15.242;2022-09-29T19:10:25;9.67;91.44
69335;SHT31;56477;52.742;15.242;2022-09-29T19:12:52;9.61;91.52